MTN001 KBZN-KDEN
Flight info
| Callsign | MTN001 |
|---|---|
| Flight time | 1h 15m |
| Altitude | 33000 |
| Route | BOY TOFUU FLATI5 |
| Aircraft | CRJ7/M-SDFGIRWY/S |
Departure
| Time | 2026-05-06 13:27 |
|---|---|
| Airport | Bozeman Yellowstone International Airport (KBZN) |
Arrival
| Time | 2026-05-06 14:42 |
|---|---|
| Airport | Denver International Airport (KDEN) |
| Time | Latitude | Longitude | Altitude | Speed | Heading |
|---|---|---|---|---|---|
| 2026-05-06 13:09 | 45.77854 | -111.15996 | 4435 ft | 0 kts | 232° |
| 2026-05-06 13:20 | 45.77859 | -111.15986 | 4444 ft | 4 kts | 236° |
| 2026-05-06 13:21 | 45.77868 | -111.15952 | 4444 ft | 4 kts | 266° |
| 2026-05-06 13:21 | 45.77861 | -111.15919 | 4444 ft | 3 kts | 312° |
| 2026-05-06 13:21 | 45.77859 | -111.15916 | 4444 ft | 1 kts | 315° |
| 2026-05-06 13:23 | 45.77876 | -111.15933 | 4444 ft | 11 kts | 340° |
| 2026-05-06 13:23 | 45.77948 | -111.15904 | 4444 ft | 11 kts | 9° |
| 2026-05-06 13:23 | 45.78007 | -111.15950 | 4444 ft | 10 kts | 316° |
| 2026-05-06 13:24 | 45.78057 | -111.16018 | 4444 ft | 10 kts | 317° |
| 2026-05-06 13:24 | 45.78108 | -111.16082 | 4444 ft | 10 kts | 319° |
| 2026-05-06 13:24 | 45.78158 | -111.16147 | 4444 ft | 10 kts | 316° |
| 2026-05-06 13:24 | 45.78209 | -111.16218 | 4444 ft | 14 kts | 315° |
| 2026-05-06 13:25 | 45.78297 | -111.16342 | 4444 ft | 20 kts | 316° |
| 2026-05-06 13:25 | 45.78399 | -111.16484 | 4444 ft | 20 kts | 315° |
| 2026-05-06 13:25 | 45.78494 | -111.16618 | 4444 ft | 18 kts | 315° |
| 2026-05-06 13:25 | 45.78581 | -111.16742 | 4444 ft | 18 kts | 316° |
| 2026-05-06 13:26 | 45.78663 | -111.16811 | 4444 ft | 9 kts | 11° |
| 2026-05-06 13:26 | 45.78711 | -111.16761 | 4444 ft | 8 kts | 51° |
| 2026-05-06 13:26 | 45.78749 | -111.16694 | 4444 ft | 12 kts | 55° |
| 2026-05-06 13:26 | 45.78726 | -111.16526 | 4446 ft | 31 kts | 132° |
| 2026-05-06 13:27 | 45.78417 | -111.16096 | 4444 ft | 93 kts | 136° |
| 2026-05-06 13:27 | 45.77821 | -111.15274 | 4443 ft | 143 kts | 135° |
| 2026-05-06 13:27 | 45.77072 | -111.14246 | 4801 ft | 147 kts | 139° |
| 2026-05-06 13:27 | 45.76276 | -111.13248 | 5174 ft | 158 kts | 137° |
| 2026-05-06 13:28 | 45.75417 | -111.12184 | 5572 ft | 169 kts | 140° |
| 2026-05-06 13:28 | 45.74482 | -111.11136 | 6189 ft | 176 kts | 142° |
| 2026-05-06 13:28 | 45.73485 | -111.09860 | 6401 ft | 211 kts | 137° |
| 2026-05-06 13:28 | 45.72374 | -111.08312 | 6904 ft | 235 kts | 137° |
| 2026-05-06 13:29 | 45.71140 | -111.06617 | 7438 ft | 255 kts | 138° |
| 2026-05-06 13:29 | 45.69780 | -111.04850 | 8043 ft | 272 kts | 139° |
| 2026-05-06 13:29 | 45.68341 | -111.02978 | 8704 ft | 287 kts | 138° |
| 2026-05-06 13:29 | 45.66838 | -111.01020 | 9451 ft | 299 kts | 139° |
| 2026-05-06 13:30 | 45.65239 | -110.98948 | 10020 ft | 317 kts | 138° |
| 2026-05-06 13:30 | 45.63560 | -110.96770 | 10582 ft | 333 kts | 138° |
| 2026-05-06 13:30 | 45.61806 | -110.94502 | 11272 ft | 344 kts | 137° |
| 2026-05-06 13:30 | 45.60012 | -110.92194 | 12135 ft | 350 kts | 136° |
| 2026-05-06 13:31 | 45.58178 | -110.89854 | 12654 ft | 364 kts | 136° |
| 2026-05-06 13:31 | 45.56261 | -110.87412 | 13164 ft | 372 kts | 136° |
| 2026-05-06 13:31 | 45.54321 | -110.84920 | 13730 ft | 379 kts | 135° |
| 2026-05-06 13:31 | 45.52353 | -110.82381 | 14323 ft | 383 kts | 135° |
| 2026-05-06 13:32 | 45.50379 | -110.79832 | 15008 ft | 382 kts | 134° |
| 2026-05-06 13:32 | 45.48391 | -110.77271 | 15556 ft | 387 kts | 134° |
| 2026-05-06 13:32 | 45.46387 | -110.74673 | 16075 ft | 392 kts | 133° |
| 2026-05-06 13:32 | 45.44396 | -110.72067 | 16558 ft | 396 kts | 133° |
| 2026-05-06 13:33 | 45.42343 | -110.69401 | 17069 ft | 400 kts | 132° |
| 2026-05-06 13:33 | 45.40257 | -110.66718 | 17563 ft | 405 kts | 132° |
| 2026-05-06 13:33 | 45.38149 | -110.64013 | 18062 ft | 410 kts | 132° |
| 2026-05-06 13:33 | 45.36014 | -110.61289 | 18543 ft | 415 kts | 131° |
| 2026-05-06 13:34 | 45.33864 | -110.58527 | 18956 ft | 419 kts | 131° |
| 2026-05-06 13:34 | 45.31688 | -110.55748 | 19373 ft | 421 kts | 132° |
| 2026-05-06 13:34 | 45.29496 | -110.52966 | 19858 ft | 424 kts | 131° |
| 2026-05-06 13:34 | 45.27287 | -110.50146 | 20261 ft | 428 kts | 131° |
| 2026-05-06 13:35 | 45.25087 | -110.47353 | 20709 ft | 431 kts | 132° |
| 2026-05-06 13:35 | 45.22845 | -110.44505 | 21177 ft | 434 kts | 131° |
| 2026-05-06 13:35 | 45.20591 | -110.41637 | 21582 ft | 437 kts | 131° |
| 2026-05-06 13:35 | 45.18303 | -110.38757 | 21926 ft | 441 kts | 132° |
| 2026-05-06 13:36 | 45.15977 | -110.35879 | 22135 ft | 448 kts | 132° |
| 2026-05-06 13:36 | 45.13630 | -110.32957 | 22565 ft | 447 kts | 132° |
| 2026-05-06 13:36 | 45.11284 | -110.30042 | 23014 ft | 449 kts | 131° |
| 2026-05-06 13:36 | 45.08947 | -110.27096 | 23398 ft | 452 kts | 131° |
| 2026-05-06 13:37 | 45.06595 | -110.24126 | 23736 ft | 455 kts | 131° |
| 2026-05-06 13:37 | 45.04216 | -110.21147 | 24021 ft | 458 kts | 131° |
| 2026-05-06 13:37 | 45.01822 | -110.18141 | 24323 ft | 459 kts | 131° |
| 2026-05-06 13:37 | 44.99431 | -110.15134 | 24607 ft | 462 kts | 131° |
| 2026-05-06 13:38 | 44.97016 | -110.12110 | 24867 ft | 465 kts | 131° |
| 2026-05-06 13:38 | 44.94598 | -110.09074 | 25137 ft | 466 kts | 131° |
| 2026-05-06 13:38 | 44.92166 | -110.06023 | 25392 ft | 469 kts | 131° |
| 2026-05-06 13:38 | 44.89710 | -110.02972 | 25663 ft | 471 kts | 131° |
| 2026-05-06 13:39 | 44.87250 | -109.99894 | 25938 ft | 473 kts | 131° |
| 2026-05-06 13:39 | 44.84777 | -109.96815 | 26195 ft | 477 kts | 131° |
| 2026-05-06 13:39 | 44.82287 | -109.93712 | 26429 ft | 478 kts | 130° |
| 2026-05-06 13:39 | 44.79825 | -109.90644 | 26637 ft | 480 kts | 131° |
| 2026-05-06 13:40 | 44.77274 | -109.87488 | 26886 ft | 482 kts | 130° |
| 2026-05-06 13:40 | 44.74791 | -109.84393 | 27105 ft | 485 kts | 130° |
| 2026-05-06 13:40 | 44.72245 | -109.81260 | 27352 ft | 486 kts | 131° |
| 2026-05-06 13:40 | 44.69697 | -109.78104 | 27582 ft | 488 kts | 130° |
| 2026-05-06 13:41 | 44.67134 | -109.74929 | 27809 ft | 490 kts | 130° |
| 2026-05-06 13:41 | 44.64567 | -109.71760 | 28050 ft | 493 kts | 130° |
| 2026-05-06 13:41 | 44.61979 | -109.68583 | 28289 ft | 495 kts | 130° |
| 2026-05-06 13:41 | 44.59415 | -109.65418 | 28443 ft | 496 kts | 130° |
| 2026-05-06 13:42 | 44.56819 | -109.62229 | 28609 ft | 497 kts | 130° |
| 2026-05-06 13:42 | 44.54219 | -109.59032 | 28750 ft | 498 kts | 130° |
| 2026-05-06 13:42 | 44.51605 | -109.55833 | 29008 ft | 498 kts | 130° |
| 2026-05-06 13:42 | 44.49007 | -109.52640 | 29280 ft | 497 kts | 130° |
| 2026-05-06 13:43 | 44.46401 | -109.49452 | 29508 ft | 497 kts | 130° |
| 2026-05-06 13:43 | 44.43799 | -109.46281 | 29791 ft | 497 kts | 130° |
| 2026-05-06 13:43 | 44.41188 | -109.43096 | 30093 ft | 496 kts | 130° |
| 2026-05-06 13:43 | 44.38589 | -109.39923 | 30329 ft | 496 kts | 130° |
| 2026-05-06 13:44 | 44.35987 | -109.36750 | 30555 ft | 496 kts | 130° |
| 2026-05-06 13:44 | 44.33385 | -109.33593 | 30753 ft | 495 kts | 129° |
| 2026-05-06 13:44 | 44.30779 | -109.30427 | 30967 ft | 495 kts | 129° |
| 2026-05-06 13:44 | 44.28211 | -109.27312 | 31179 ft | 495 kts | 129° |
| 2026-05-06 13:45 | 44.25615 | -109.24151 | 31347 ft | 494 kts | 129° |
| 2026-05-06 13:45 | 44.20416 | -109.17877 | 31692 ft | 493 kts | 129° |
| 2026-05-06 13:45 | 44.17827 | -109.14747 | 31856 ft | 493 kts | 129° |
| 2026-05-06 13:46 | 44.15223 | -109.11612 | 32026 ft | 493 kts | 129° |
| 2026-05-06 13:46 | 44.12638 | -109.08489 | 32205 ft | 492 kts | 129° |
| 2026-05-06 13:46 | 44.10046 | -109.05373 | 32385 ft | 492 kts | 129° |
| 2026-05-06 13:46 | 44.07453 | -109.02266 | 32564 ft | 492 kts | 129° |
| 2026-05-06 13:47 | 44.04865 | -108.99158 | 32743 ft | 491 kts | 129° |
| 2026-05-06 13:47 | 44.02275 | -108.96051 | 32906 ft | 491 kts | 129° |
| 2026-05-06 13:47 | 43.99714 | -108.92992 | 33062 ft | 491 kts | 129° |
| 2026-05-06 13:47 | 43.97125 | -108.89896 | 33154 ft | 492 kts | 129° |
| 2026-05-06 13:48 | 43.91904 | -108.83667 | 33211 ft | 498 kts | 129° |
| 2026-05-06 13:48 | 43.86629 | -108.77394 | 33217 ft | 501 kts | 129° |
| 2026-05-06 13:49 | 43.81322 | -108.71095 | 33208 ft | 503 kts | 130° |
| 2026-05-06 13:49 | 43.75997 | -108.64777 | 33194 ft | 505 kts | 130° |
| 2026-05-06 13:50 | 43.70644 | -108.58468 | 33201 ft | 506 kts | 130° |
| 2026-05-06 13:50 | 43.65276 | -108.52141 | 33204 ft | 508 kts | 130° |
| 2026-05-06 13:51 | 43.59917 | -108.45844 | 33205 ft | 510 kts | 130° |
| 2026-05-06 13:51 | 43.54499 | -108.39488 | 33200 ft | 511 kts | 131° |
| 2026-05-06 13:52 | 43.48995 | -108.33237 | 33210 ft | 520 kts | 138° |
| 2026-05-06 13:52 | 43.42460 | -108.28605 | 33193 ft | 533 kts | 150° |
| 2026-05-06 13:53 | 43.35369 | -108.25335 | 33191 ft | 541 kts | 161° |
| 2026-05-06 13:53 | 43.28056 | -108.22821 | 33192 ft | 541 kts | 160° |
| 2026-05-06 13:54 | 43.20817 | -108.19988 | 33189 ft | 541 kts | 159° |
| 2026-05-06 13:54 | 43.13574 | -108.17179 | 33191 ft | 541 kts | 160° |
| 2026-05-06 13:55 | 43.06369 | -108.14383 | 33192 ft | 542 kts | 160° |
| 2026-05-06 13:55 | 42.99109 | -108.11576 | 33196 ft | 542 kts | 160° |
| 2026-05-06 13:56 | 42.91851 | -108.08774 | 33203 ft | 542 kts | 160° |
| 2026-05-06 13:56 | 42.84586 | -108.05981 | 33216 ft | 542 kts | 160° |
| 2026-05-06 13:57 | 42.77312 | -108.03186 | 33223 ft | 542 kts | 160° |
| 2026-05-06 13:57 | 42.70046 | -108.00398 | 33219 ft | 542 kts | 160° |
| 2026-05-06 13:58 | 42.62787 | -107.97627 | 33215 ft | 542 kts | 160° |
| 2026-05-06 13:58 | 42.55535 | -107.94869 | 33224 ft | 541 kts | 160° |
| 2026-05-06 13:59 | 42.48340 | -107.92131 | 33225 ft | 540 kts | 160° |
| 2026-05-06 13:59 | 42.41106 | -107.89388 | 33233 ft | 539 kts | 161° |
| 2026-05-06 14:00 | 42.33883 | -107.86658 | 33228 ft | 539 kts | 161° |
| 2026-05-06 14:00 | 42.26674 | -107.83937 | 33233 ft | 537 kts | 161° |
| 2026-05-06 14:01 | 42.19470 | -107.81217 | 33218 ft | 536 kts | 161° |
| 2026-05-06 14:01 | 42.12288 | -107.78524 | 33219 ft | 535 kts | 161° |
| 2026-05-06 14:02 | 42.05126 | -107.75839 | 33220 ft | 533 kts | 161° |
| 2026-05-06 14:02 | 41.98022 | -107.73187 | 33217 ft | 532 kts | 161° |
| 2026-05-06 14:03 | 41.90895 | -107.70526 | 33213 ft | 531 kts | 162° |
| 2026-05-06 14:03 | 41.84047 | -107.67102 | 33212 ft | 520 kts | 144° |
| 2026-05-06 14:04 | 41.78276 | -107.61405 | 33200 ft | 512 kts | 135° |
| 2026-05-06 14:04 | 41.73181 | -107.54860 | 33195 ft | 504 kts | 125° |
| 2026-05-06 14:05 | 41.68666 | -107.47703 | 33189 ft | 503 kts | 126° |
| 2026-05-06 14:05 | 41.64767 | -107.41900 | 33184 ft | 504 kts | 127° |
| 2026-05-06 14:06 | 41.60065 | -107.34937 | 33182 ft | 504 kts | 127° |
| 2026-05-06 14:06 | 41.55362 | -107.27990 | 33179 ft | 504 kts | 128° |
| 2026-05-06 14:07 | 41.50648 | -107.21045 | 33183 ft | 504 kts | 128° |
| 2026-05-06 14:07 | 41.45934 | -107.14110 | 33164 ft | 504 kts | 128° |
| 2026-05-06 14:08 | 41.41247 | -107.07237 | 33148 ft | 504 kts | 129° |
| 2026-05-06 14:08 | 41.36525 | -107.00321 | 33145 ft | 504 kts | 129° |
| 2026-05-06 14:09 | 41.31803 | -106.93412 | 33145 ft | 504 kts | 129° |
| 2026-05-06 14:09 | 41.27082 | -106.86506 | 33146 ft | 504 kts | 130° |
| 2026-05-06 14:10 | 41.22392 | -106.79675 | 33145 ft | 503 kts | 130° |
| 2026-05-06 14:10 | 41.17662 | -106.72806 | 33146 ft | 503 kts | 130° |
| 2026-05-06 14:11 | 41.12937 | -106.65954 | 33152 ft | 503 kts | 130° |
| 2026-05-06 14:11 | 41.08198 | -106.59103 | 33152 ft | 502 kts | 131° |
| 2026-05-06 14:12 | 41.03475 | -106.52285 | 33149 ft | 502 kts | 131° |
| 2026-05-06 14:12 | 40.98747 | -106.45486 | 33151 ft | 502 kts | 131° |
| 2026-05-06 14:13 | 40.94041 | -106.38736 | 33147 ft | 501 kts | 131° |
| 2026-05-06 14:13 | 40.89309 | -106.31944 | 33144 ft | 501 kts | 132° |
| 2026-05-06 14:14 | 40.84926 | -106.24806 | 33052 ft | 501 kts | 121° |
| 2026-05-06 14:14 | 40.83114 | -106.20906 | 32543 ft | 502 kts | 119° |
| 2026-05-06 14:14 | 40.81452 | -106.16893 | 32040 ft | 495 kts | 115° |
| 2026-05-06 14:15 | 40.80138 | -106.13117 | 31586 ft | 489 kts | 112° |
| 2026-05-06 14:15 | 40.79089 | -106.09933 | 31195 ft | 481 kts | 112° |
| 2026-05-06 14:15 | 40.77758 | -106.05933 | 30724 ft | 470 kts | 114° |
| 2026-05-06 14:15 | 40.77012 | -106.03792 | 30462 ft | 464 kts | 115° |
| 2026-05-06 14:16 | 40.75644 | -105.99976 | 29936 ft | 455 kts | 115° |
| 2026-05-06 14:16 | 40.74307 | -105.96242 | 29359 ft | 447 kts | 115° |
| 2026-05-06 14:16 | 40.72990 | -105.92565 | 28786 ft | 439 kts | 116° |
| 2026-05-06 14:16 | 40.71694 | -105.88944 | 28222 ft | 433 kts | 116° |
| 2026-05-06 14:17 | 40.70405 | -105.85376 | 27679 ft | 429 kts | 117° |
| 2026-05-06 14:17 | 40.69162 | -105.81920 | 27170 ft | 426 kts | 117° |
| 2026-05-06 14:17 | 40.68137 | -105.79078 | 26748 ft | 423 kts | 117° |
| 2026-05-06 14:17 | 40.66872 | -105.75573 | 26231 ft | 421 kts | 118° |
| 2026-05-06 14:18 | 40.65617 | -105.72097 | 25739 ft | 419 kts | 118° |
| 2026-05-06 14:18 | 40.64367 | -105.68629 | 25249 ft | 417 kts | 118° |
| 2026-05-06 14:18 | 40.63118 | -105.65189 | 24741 ft | 416 kts | 119° |
| 2026-05-06 14:18 | 40.61877 | -105.61761 | 24229 ft | 414 kts | 119° |
| 2026-05-06 14:19 | 40.60636 | -105.58343 | 23726 ft | 412 kts | 120° |
| 2026-05-06 14:19 | 40.59417 | -105.54986 | 23159 ft | 411 kts | 120° |
| 2026-05-06 14:19 | 40.58184 | -105.51596 | 22623 ft | 409 kts | 119° |
| 2026-05-06 14:19 | 40.56962 | -105.48218 | 22077 ft | 408 kts | 119° |
| 2026-05-06 14:20 | 40.55744 | -105.44861 | 21545 ft | 406 kts | 118° |
| 2026-05-06 14:20 | 40.54531 | -105.41514 | 21031 ft | 404 kts | 118° |
| 2026-05-06 14:20 | 40.53319 | -105.38189 | 20522 ft | 402 kts | 118° |
| 2026-05-06 14:20 | 40.52114 | -105.34882 | 20016 ft | 399 kts | 117° |
| 2026-05-06 14:21 | 40.50916 | -105.31592 | 19529 ft | 397 kts | 117° |
| 2026-05-06 14:21 | 40.49728 | -105.28341 | 19043 ft | 392 kts | 117° |
| 2026-05-06 14:21 | 40.48555 | -105.25132 | 18561 ft | 387 kts | 116° |
| 2026-05-06 14:21 | 40.47399 | -105.21973 | 18031 ft | 381 kts | 116° |
| 2026-05-06 14:22 | 40.46221 | -105.18924 | 17479 ft | 376 kts | 124° |
| 2026-05-06 14:22 | 40.44434 | -105.16428 | 16966 ft | 368 kts | 142° |
| 2026-05-06 14:22 | 40.42383 | -105.14456 | 16450 ft | 363 kts | 147° |
| 2026-05-06 14:22 | 40.40314 | -105.12653 | 15944 ft | 360 kts | 148° |
| 2026-05-06 14:23 | 40.38229 | -105.10853 | 15469 ft | 356 kts | 148° |
| 2026-05-06 14:23 | 40.36206 | -105.09057 | 15232 ft | 345 kts | 146° |
| 2026-05-06 14:23 | 40.34276 | -105.07270 | 15119 ft | 332 kts | 146° |
| 2026-05-06 14:23 | 40.32425 | -105.05553 | 15075 ft | 319 kts | 146° |
| 2026-05-06 14:24 | 40.30643 | -105.03897 | 15045 ft | 309 kts | 146° |
| 2026-05-06 14:24 | 40.28886 | -105.02270 | 15031 ft | 309 kts | 146° |
| 2026-05-06 14:24 | 40.27133 | -105.00650 | 15037 ft | 308 kts | 146° |
| 2026-05-06 14:24 | 40.25401 | -104.99044 | 15038 ft | 308 kts | 146° |
| 2026-05-06 14:25 | 40.23646 | -104.97432 | 14985 ft | 309 kts | 146° |
| 2026-05-06 14:25 | 40.21864 | -104.95796 | 14557 ft | 313 kts | 145° |
| 2026-05-06 14:25 | 40.20081 | -104.94140 | 14149 ft | 314 kts | 145° |
| 2026-05-06 14:25 | 40.18285 | -104.92503 | 13710 ft | 314 kts | 148° |
| 2026-05-06 14:26 | 40.16362 | -104.91157 | 13310 ft | 311 kts | 156° |
| 2026-05-06 14:26 | 40.14392 | -104.90067 | 13133 ft | 302 kts | 158° |
| 2026-05-06 14:26 | 40.12469 | -104.89062 | 13062 ft | 291 kts | 158° |
| 2026-05-06 14:26 | 40.10620 | -104.88102 | 13026 ft | 280 kts | 158° |
| 2026-05-06 14:27 | 40.08848 | -104.87148 | 13015 ft | 270 kts | 157° |
| 2026-05-06 14:27 | 40.07171 | -104.86200 | 13006 ft | 264 kts | 156° |
| 2026-05-06 14:27 | 40.05444 | -104.85229 | 12681 ft | 280 kts | 156° |
| 2026-05-06 14:27 | 40.03583 | -104.84181 | 12327 ft | 298 kts | 156° |
| 2026-05-06 14:28 | 40.01650 | -104.83082 | 12162 ft | 307 kts | 156° |
| 2026-05-06 14:28 | 39.99705 | -104.81972 | 12077 ft | 306 kts | 156° |
| 2026-05-06 14:28 | 39.97791 | -104.80891 | 12035 ft | 293 kts | 158° |
| 2026-05-06 14:28 | 39.95846 | -104.80360 | 12017 ft | 280 kts | 175° |
| 2026-05-06 14:29 | 39.93937 | -104.80333 | 12004 ft | 270 kts | 182° |
| 2026-05-06 14:29 | 39.92093 | -104.80472 | 11994 ft | 259 kts | 183° |
| 2026-05-06 14:29 | 39.90319 | -104.80610 | 11989 ft | 253 kts | 182° |
| 2026-05-06 14:29 | 39.88521 | -104.80687 | 11805 ft | 265 kts | 180° |
| 2026-05-06 14:30 | 39.86655 | -104.80730 | 11399 ft | 271 kts | 180° |
| 2026-05-06 14:30 | 39.84777 | -104.80773 | 11178 ft | 268 kts | 180° |
| 2026-05-06 14:30 | 39.82955 | -104.80820 | 11077 ft | 261 kts | 180° |
| 2026-05-06 14:30 | 39.81140 | -104.80867 | 11029 ft | 253 kts | 180° |
| 2026-05-06 14:31 | 39.79433 | -104.80914 | 10988 ft | 244 kts | 179° |
| 2026-05-06 14:31 | 39.77768 | -104.80888 | 10973 ft | 236 kts | 184° |
| 2026-05-06 14:31 | 39.76152 | -104.81096 | 10981 ft | 233 kts | 182° |
| 2026-05-06 14:31 | 39.74546 | -104.81216 | 11014 ft | 228 kts | 181° |
| 2026-05-06 14:32 | 39.72979 | -104.81311 | 11013 ft | 223 kts | 181° |
| 2026-05-06 14:32 | 39.71438 | -104.81394 | 11008 ft | 220 kts | 180° |
| 2026-05-06 14:32 | 39.69919 | -104.81473 | 10999 ft | 216 kts | 181° |
| 2026-05-06 14:32 | 39.68408 | -104.81557 | 10996 ft | 219 kts | 180° |
| 2026-05-06 14:33 | 39.66818 | -104.81637 | 10631 ft | 240 kts | 180° |
| 2026-05-06 14:33 | 39.65157 | -104.81718 | 10191 ft | 243 kts | 180° |
| 2026-05-06 14:33 | 39.63469 | -104.81800 | 9716 ft | 243 kts | 180° |
| 2026-05-06 14:33 | 39.61778 | -104.81880 | 9307 ft | 240 kts | 180° |
| 2026-05-06 14:34 | 39.60149 | -104.81956 | 9128 ft | 227 kts | 180° |
| 2026-05-06 14:34 | 39.58690 | -104.81589 | 9016 ft | 205 kts | 146° |
| 2026-05-06 14:34 | 39.57920 | -104.80232 | 8974 ft | 177 kts | 96° |
| 2026-05-06 14:34 | 39.58169 | -104.78855 | 8966 ft | 147 kts | 53° |
| 2026-05-06 14:35 | 39.58858 | -104.77828 | 8969 ft | 153 kts | 33° |
| 2026-05-06 14:35 | 39.59742 | -104.77094 | 8988 ft | 149 kts | 34° |
| 2026-05-06 14:35 | 39.60570 | -104.76316 | 8991 ft | 146 kts | 38° |
| 2026-05-06 14:35 | 39.61333 | -104.75480 | 8986 ft | 147 kts | 41° |
| 2026-05-06 14:36 | 39.62091 | -104.74571 | 8997 ft | 149 kts | 43° |
| 2026-05-06 14:36 | 39.62842 | -104.73631 | 9000 ft | 152 kts | 44° |
| 2026-05-06 14:36 | 39.63613 | -104.72666 | 9006 ft | 156 kts | 44° |
| 2026-05-06 14:36 | 39.64403 | -104.71677 | 9011 ft | 159 kts | 44° |
| 2026-05-06 14:37 | 39.65206 | -104.70679 | 9004 ft | 160 kts | 43° |
| 2026-05-06 14:37 | 39.66013 | -104.69678 | 9004 ft | 160 kts | 43° |
| 2026-05-06 14:37 | 39.66930 | -104.68907 | 8967 ft | 157 kts | 11° |
| 2026-05-06 14:37 | 39.68003 | -104.68878 | 8984 ft | 153 kts | 1° |
| 2026-05-06 14:38 | 39.69059 | -104.68882 | 8953 ft | 156 kts | 1° |
| 2026-05-06 14:38 | 39.70200 | -104.68902 | 8708 ft | 170 kts | 1° |
| 2026-05-06 14:38 | 39.71389 | -104.68910 | 8459 ft | 168 kts | 1° |
| 2026-05-06 14:38 | 39.72528 | -104.68902 | 8217 ft | 158 kts | 2° |
| 2026-05-06 14:39 | 39.73586 | -104.68888 | 7973 ft | 148 kts | 2° |
| 2026-05-06 14:39 | 39.74599 | -104.68869 | 7766 ft | 147 kts | 2° |
| 2026-05-06 14:39 | 39.75615 | -104.68846 | 7580 ft | 146 kts | 2° |
| 2026-05-06 14:39 | 39.76638 | -104.68829 | 7392 ft | 148 kts | 1° |
| 2026-05-06 14:40 | 39.77678 | -104.68814 | 7219 ft | 149 kts | 1° |
| 2026-05-06 14:40 | 39.78716 | -104.68804 | 7029 ft | 150 kts | 1° |
| 2026-05-06 14:40 | 39.79745 | -104.68796 | 6835 ft | 145 kts | 1° |
| 2026-05-06 14:40 | 39.80735 | -104.68789 | 6620 ft | 138 kts | 1° |
| 2026-05-06 14:41 | 39.81686 | -104.68778 | 6433 ft | 140 kts | 1° |
| 2026-05-06 14:41 | 39.82683 | -104.68760 | 6207 ft | 147 kts | 1° |
| 2026-05-06 14:41 | 39.83722 | -104.68741 | 5978 ft | 151 kts | 0° |
| 2026-05-06 14:41 | 39.84789 | -104.68735 | 5765 ft | 154 kts | 359° |
| 2026-05-06 14:42 | 39.85850 | -104.68734 | 5498 ft | 148 kts | 1° |
| 2026-05-06 14:42 | 39.86773 | -104.68711 | 5365 ft | 116 kts | 0° |
| 2026-05-06 14:42 | 39.87419 | -104.68706 | 5364 ft | 69 kts | 1° |
| 2026-05-06 14:42 | 39.87720 | -104.68703 | 5366 ft | 30 kts | 1° |
| 2026-05-06 14:43 | 39.87757 | -104.68657 | 5366 ft | 10 kts | 109° |
| 2026-05-06 14:43 | 39.87693 | -104.68596 | 5364 ft | 11 kts | 152° |
| 2026-05-06 14:43 | 39.87632 | -104.68556 | 5364 ft | 9 kts | 155° |
| 2026-05-06 14:43 | 39.87583 | -104.68526 | 5364 ft | 7 kts | 156° |
| 2026-05-06 14:44 | 39.87508 | -104.68497 | 5364 ft | 15 kts | 169° |
| 2026-05-06 14:44 | 39.87353 | -104.68484 | 5364 ft | 18 kts | 186° |
| 2026-05-06 14:44 | 39.87238 | -104.68492 | 5364 ft | 15 kts | 181° |
| 2026-05-06 14:45 | 39.87056 | -104.68496 | 5364 ft | 11 kts | 180° |
| 2026-05-06 14:45 | 39.86986 | -104.68496 | 5362 ft | 9 kts | 180° |
| 2026-05-06 14:45 | 39.86894 | -104.68498 | 5364 ft | 20 kts | 181° |
| 2026-05-06 14:45 | 39.86728 | -104.68498 | 5364 ft | 26 kts | 180° |
| 2026-05-06 14:46 | 39.86539 | -104.68497 | 5364 ft | 26 kts | 180° |
| 2026-05-06 14:46 | 39.86374 | -104.68501 | 5364 ft | 21 kts | 181° |
| 2026-05-06 14:46 | 39.86234 | -104.68505 | 5364 ft | 19 kts | 180° |
| 2026-05-06 14:46 | 39.86110 | -104.68506 | 5364 ft | 17 kts | 181° |
| 2026-05-06 14:47 | 39.86003 | -104.68507 | 5364 ft | 15 kts | 180° |
| 2026-05-06 14:47 | 39.85908 | -104.68508 | 5364 ft | 13 kts | 180° |
| 2026-05-06 14:47 | 39.85828 | -104.68509 | 5364 ft | 11 kts | 180° |
| 2026-05-06 14:47 | 39.85732 | -104.68505 | 5364 ft | 20 kts | 161° |
| 2026-05-06 14:48 | 39.85690 | -104.68366 | 5363 ft | 16 kts | 92° |
| 2026-05-06 14:48 | 39.85686 | -104.68228 | 5364 ft | 16 kts | 95° |
| 2026-05-06 14:48 | 39.85671 | -104.68078 | 5364 ft | 18 kts | 93° |
| 2026-05-06 14:48 | 39.85669 | -104.67908 | 5364 ft | 20 kts | 91° |
| 2026-05-06 14:49 | 39.85667 | -104.67724 | 5364 ft | 21 kts | 91° |
| 2026-05-06 14:49 | 39.85666 | -104.67533 | 5364 ft | 22 kts | 90° |
| 2026-05-06 14:49 | 39.85665 | -104.67338 | 5364 ft | 21 kts | 90° |
| 2026-05-06 14:49 | 39.85664 | -104.67160 | 5364 ft | 19 kts | 90° |
| 2026-05-06 14:50 | 39.85664 | -104.67000 | 5364 ft | 17 kts | 91° |
| 2026-05-06 14:50 | 39.85660 | -104.66859 | 5364 ft | 14 kts | 92° |
| 2026-05-06 14:50 | 39.85657 | -104.66762 | 5364 ft | 10 kts | 92° |
| 2026-05-06 14:50 | 39.85675 | -104.66699 | 5364 ft | 5 kts | 23° |
| 2026-05-06 14:51 | 39.85708 | -104.66692 | 5364 ft | 3 kts | 2° |
| 2026-05-06 14:51 | 39.85728 | -104.66691 | 5364 ft | 5 kts | 1° |
| 2026-05-06 14:51 | 39.85749 | -104.66691 | 5364 ft | 2 kts | 0° |
| 2026-05-06 14:51 | 39.85759 | -104.66691 | 5364 ft | 0 kts | 1° |